createdAt,value
2018-02-12T00:00:41.912Z,3.58
2018-02-12T00:03:11.824Z,3.59
2018-02-12T00:05:40.141Z,3.58
2018-02-12T00:08:11.639Z,3.56
2018-02-12T00:10:39.959Z,3.55
2018-02-12T00:13:11.261Z,3.58
2018-02-12T00:15:39.583Z,3.57
2018-02-12T00:18:15.934Z,3.55
2018-02-12T00:20:44.262Z,3.62
2018-02-12T00:23:12.730Z,3.62
2018-02-12T00:25:41.432Z,3.57
2018-02-12T00:28:13.533Z,3.61
2018-02-12T00:30:41.816Z,3.50
2018-02-12T00:33:13.627Z,3.60
2018-02-12T00:35:42.646Z,3.63
2018-02-12T00:38:12.685Z,3.69
2018-02-12T00:40:41.627Z,3.72
2018-02-12T00:43:15.171Z,3.68
2018-02-12T00:45:49.799Z,3.67
2018-02-12T00:48:20.854Z,3.71
2018-02-12T00:50:52.163Z,3.66
2018-02-12T00:53:22.990Z,3.70
2018-02-12T00:55:53.737Z,3.70
2018-02-12T00:58:22.343Z,3.77
2018-02-12T01:00:50.710Z,3.72
2018-02-12T01:03:19.900Z,3.72
2018-02-12T01:05:50.090Z,3.57
2018-02-12T01:08:24.190Z,3.48
2018-02-12T01:10:56.002Z,3.45
2018-02-12T01:13:24.492Z,3.30
2018-02-12T01:16:00.222Z,3.12
2018-02-12T01:18:31.939Z,3.13
2018-02-12T01:21:02.246Z,3.07
2018-02-12T01:23:30.618Z,2.97
2018-02-12T01:26:02.333Z,3.06
2018-02-12T01:28:31.413Z,3.06
2018-02-12T01:31:05.241Z,2.90
2018-02-12T01:33:37.316Z,2.84
2018-02-12T01:36:07.604Z,2.92
2018-02-12T01:38:38.849Z,2.97
2018-02-12T01:41:08.379Z,2.94
2018-02-12T01:43:38.908Z,3.01
2018-02-12T01:46:09.544Z,3.02
2018-02-12T01:48:38.605Z,2.95
2018-02-12T01:51:08.877Z,2.95
2018-02-12T01:53:37.615Z,3.09
2018-02-12T01:56:06.430Z,3.16
2018-02-12T01:58:39.281Z,3.15
2018-02-12T02:01:08.251Z,3.15
2018-02-12T02:03:38.117Z,3.12
2018-02-12T02:06:08.003Z,3.16
2018-02-12T02:08:37.741Z,3.08
2018-02-12T02:11:10.911Z,3.15
2018-02-12T02:13:40.280Z,3.07
2018-02-12T02:16:09.166Z,3.11
2018-02-12T02:18:38.931Z,3.24
2018-02-12T02:21:11.803Z,3.18
2018-02-12T02:23:43.517Z,3.29
2018-02-12T02:26:15.748Z,3.22
2018-02-12T02:28:50.154Z,3.23
2018-02-12T02:31:18.645Z,3.29
2018-02-12T02:33:46.914Z,3.36
2018-02-12T02:36:15.359Z,3.34
2018-02-12T02:38:43.632Z,3.35
2018-02-12T02:41:12.208Z,3.25
2018-02-12T02:43:41.044Z,3.22
2018-02-12T02:46:09.289Z,3.33
2018-02-12T02:48:37.568Z,3.30
2018-02-12T02:51:06.030Z,3.29
2018-02-12T02:53:34.307Z,3.34
2018-02-12T02:56:02.587Z,3.33
2018-02-12T02:58:30.868Z,3.32
2018-02-12T03:00:59.432Z,3.39
2018-02-12T03:03:27.710Z,3.27
2018-02-12T03:05:56.148Z,3.32
2018-02-12T03:08:24.463Z,3.30
2018-02-12T03:10:52.741Z,3.27
2018-02-12T03:13:21.037Z,3.38
2018-02-12T03:15:49.318Z,3.39
2018-02-12T03:18:17.617Z,3.35
2018-02-12T03:20:45.906Z,3.31
2018-02-12T03:23:14.199Z,3.39
2018-02-12T03:25:42.929Z,3.45
2018-02-12T03:28:12.648Z,3.31
2018-02-12T03:30:40.973Z,3.28
2018-02-12T03:33:12.558Z,3.32
2018-02-12T03:35:40.814Z,3.25
2018-02-12T03:38:11.904Z,3.27
2018-02-12T03:40:40.163Z,3.22
2018-02-12T03:43:11.612Z,3.28
2018-02-12T03:45:42.060Z,3.33
2018-02-12T03:48:13.436Z,3.28
2018-02-12T03:50:41.849Z,3.38
2018-02-12T03:53:13.910Z,3.38
2018-02-12T03:55:42.184Z,3.38
2018-02-12T03:58:12.475Z,3.44
2018-02-12T04:00:41.572Z,3.37
2018-02-12T04:03:13.669Z,3.43
2018-02-12T04:05:42.229Z,3.41
2018-02-12T04:08:12.068Z,3.37
2018-02-12T04:10:40.711Z,3.40
2018-02-12T04:13:12.720Z,3.34
2018-02-12T04:15:41.023Z,3.40
2018-02-12T04:18:11.858Z,3.38
2018-02-12T04:20:40.197Z,3.40
2018-02-12T04:23:13.445Z,3.32
2018-02-12T04:25:42.041Z,3.36
2018-02-12T04:28:12.001Z,3.46
2018-02-12T04:30:40.322Z,3.47
2018-02-12T04:33:15.440Z,3.38
2018-02-12T04:35:43.731Z,3.38
2018-02-12T04:38:12.053Z,3.39
2018-02-12T04:40:40.333Z,3.51
2018-02-12T04:43:11.768Z,3.57
2018-02-12T04:45:40.793Z,3.59
2018-02-12T04:48:12.933Z,3.56
2018-02-12T04:50:41.217Z,3.61
2018-02-12T04:53:12.996Z,3.56
2018-02-12T04:55:41.318Z,3.46
2018-02-12T04:58:13.302Z,3.55
2018-02-12T05:00:41.573Z,3.60
2018-02-12T05:03:13.483Z,3.60
2018-02-12T05:05:41.767Z,3.65
2018-02-12T05:08:13.875Z,3.67
2018-02-12T05:10:42.169Z,3.72
2018-02-12T05:13:12.157Z,3.61
2018-02-12T05:15:40.446Z,3.48
2018-02-12T05:18:13.826Z,3.46
2018-02-12T05:20:42.605Z,3.44
2018-02-12T05:23:11.934Z,3.56
2018-02-12T05:25:40.213Z,3.53
2018-02-12T05:28:12.074Z,3.62
2018-02-12T05:30:40.399Z,3.63
2018-02-12T05:33:15.547Z,3.59
2018-02-12T05:35:43.820Z,3.61
2018-02-12T05:38:12.721Z,3.61
2018-02-12T05:40:41.029Z,3.48
2018-02-12T05:43:13.065Z,3.54
2018-02-12T05:45:41.349Z,3.42
2018-02-12T05:48:13.872Z,3.37
2018-02-12T05:50:42.245Z,3.40
2018-02-12T05:53:12.444Z,3.36
2018-02-12T05:55:40.743Z,3.29
2018-02-12T05:58:12.780Z,3.33
2018-02-12T06:00:41.210Z,3.29
2018-02-12T06:03:13.142Z,3.37
2018-02-12T06:05:41.507Z,3.36
2018-02-12T06:08:12.843Z,3.50
2018-02-12T06:10:41.647Z,3.38
2018-02-12T06:13:13.209Z,3.46
2018-02-12T06:15:41.471Z,3.24
2018-02-12T06:18:12.692Z,3.34
2018-02-12T06:20:41.762Z,3.46
2018-02-12T06:23:13.436Z,3.04
2018-02-12T06:25:42.724Z,3.13
2018-02-12T06:28:11.920Z,3.02
2018-02-12T06:30:40.297Z,2.95
2018-02-12T06:33:11.904Z,2.96
2018-02-12T06:35:40.234Z,3.15
2018-02-12T06:38:15.490Z,3.16
2018-02-12T06:40:43.795Z,3.20
2018-02-12T06:43:12.087Z,3.32
2018-02-12T06:45:40.414Z,3.31
2018-02-12T06:48:15.517Z,3.31
2018-02-12T06:50:43.776Z,3.35
2018-02-12T06:53:12.080Z,3.25
2018-02-12T06:55:40.377Z,3.24
2018-02-12T06:58:15.389Z,3.09
2018-02-12T07:00:43.700Z,3.13
2018-02-12T07:03:12.008Z,3.21
2018-02-12T07:05:40.285Z,3.15
2018-02-12T07:08:12.113Z,3.31
2018-02-12T07:10:40.373Z,3.33
2018-02-12T07:13:12.204Z,3.27
2018-02-12T07:15:40.733Z,3.20
2018-02-12T07:18:12.849Z,3.26
2018-02-12T07:20:41.135Z,3.21
2018-02-12T07:23:13.480Z,3.29
2018-02-12T07:25:42.218Z,3.27
2018-02-12T07:28:12.132Z,3.24
2018-02-12T07:30:40.448Z,3.31
2018-02-12T07:33:11.953Z,3.41
2018-02-12T07:35:40.408Z,3.44
2018-02-12T07:38:15.411Z,3.47
2018-02-12T07:40:43.720Z,3.42
2018-02-12T07:43:12.854Z,3.33
2018-02-12T07:45:41.150Z,3.33
2018-02-12T07:48:12.688Z,3.42
2018-02-12T07:50:41.264Z,3.46
2018-02-12T07:53:13.225Z,3.32
2018-02-12T07:55:41.547Z,3.41
2018-02-12T07:58:14.159Z,3.57
2018-02-12T08:00:42.622Z,3.60
2018-02-12T08:03:12.055Z,3.69
2018-02-12T08:05:40.411Z,3.53
2018-02-12T08:08:15.424Z,3.57
2018-02-12T08:10:44.345Z,3.59
2018-02-12T08:13:12.621Z,3.69
2018-02-12T08:15:40.900Z,3.71
2018-02-12T08:18:13.894Z,3.73
2018-02-12T08:20:42.259Z,3.71
2018-02-12T08:23:13.546Z,3.79
2018-02-12T08:25:41.859Z,3.88
2018-02-12T08:28:15.185Z,3.92
2018-02-12T08:30:43.473Z,3.88
2018-02-12T08:33:12.486Z,3.78
2018-02-12T08:35:40.781Z,3.92
2018-02-12T08:38:12.809Z,3.92
2018-02-12T08:40:41.088Z,3.86
2018-02-12T08:43:11.995Z,3.91
2018-02-12T08:45:40.263Z,3.89
2018-02-12T08:48:12.206Z,3.92
2018-02-12T08:50:40.485Z,3.86
2018-02-12T08:53:15.838Z,3.74
2018-02-12T08:55:44.112Z,3.78
2018-02-12T08:58:12.402Z,3.79
2018-02-12T09:00:40.679Z,3.86
2018-02-12T09:03:12.267Z,3.89
2018-02-12T09:05:40.532Z,3.89
2018-02-12T09:08:14.957Z,3.93
2018-02-12T09:10:43.227Z,4.04
2018-02-12T09:13:12.232Z,4.08
2018-02-12T09:15:40.517Z,4.07
2018-02-12T09:18:12.632Z,4.14
2018-02-12T09:20:40.976Z,4.13
2018-02-12T09:23:13.045Z,4.00
2018-02-12T09:25:41.364Z,4.20
2018-02-12T09:28:14.024Z,4.38
2018-02-12T09:30:42.305Z,4.56
2018-02-12T09:33:13.641Z,4.49
2018-02-12T09:35:41.913Z,4.40
2018-02-12T09:38:11.976Z,4.45
2018-02-12T09:40:41.209Z,4.73
2018-02-12T09:43:12.535Z,4.72
2018-02-12T09:45:41.123Z,4.73
2018-02-12T09:48:12.659Z,4.52
2018-02-12T09:50:40.944Z,4.44
2018-02-12T09:53:13.297Z,4.35
2018-02-12T09:55:41.580Z,4.54
2018-02-12T09:58:13.553Z,4.86
2018-02-12T10:00:42.308Z,4.90
2018-02-12T10:03:12.002Z,5.23
2018-02-12T10:05:40.421Z,5.20
2018-02-12T10:08:12.317Z,5.39
2018-02-12T10:10:41.302Z,5.29
2018-02-12T10:13:13.232Z,5.39
2018-02-12T10:15:41.520Z,5.14
2018-02-12T10:18:12.742Z,4.78
2018-02-12T10:20:41.035Z,5.04
2018-02-12T10:23:12.484Z,4.90
2018-02-12T10:25:40.794Z,4.73
2018-02-12T10:28:12.161Z,4.96
2018-02-12T10:30:40.472Z,4.98
2018-02-12T10:33:12.096Z,4.86
2018-02-12T10:35:40.621Z,4.48
2018-02-12T10:38:12.641Z,4.46
2018-02-12T10:40:42.292Z,4.60
2018-02-12T10:43:12.871Z,4.52
2018-02-12T10:45:41.136Z,4.55
2018-02-12T10:48:12.328Z,4.71
2018-02-12T10:50:41.445Z,4.94
2018-02-12T10:53:13.720Z,4.90
2018-02-12T10:55:45.929Z,5.05
2018-02-12T10:58:14.557Z,4.86
2018-02-12T11:00:42.849Z,5.23
2018-02-12T11:03:14.291Z,5.19
2018-02-12T11:05:42.586Z,5.44
2018-02-12T11:08:12.469Z,5.49
2018-02-12T11:10:40.753Z,5.56
2018-02-12T11:13:14.694Z,5.66
2018-02-12T11:15:43.024Z,5.48
2018-02-12T11:18:12.220Z,5.40
2018-02-12T11:20:40.545Z,5.26
2018-02-12T11:23:15.685Z,5.26
2018-02-12T11:25:43.984Z,5.41
2018-02-12T11:28:12.267Z,5.59
2018-02-12T11:30:40.633Z,5.88
2018-02-12T11:33:14.788Z,5.83
2018-02-12T11:35:43.076Z,5.51
2018-02-12T11:38:12.259Z,5.44
2018-02-12T11:40:40.537Z,5.53
2018-02-12T11:43:15.413Z,5.66
2018-02-12T11:45:43.689Z,5.54
2018-02-12T11:48:12.073Z,5.45
2018-02-12T11:50:40.988Z,5.36
2018-02-12T11:53:13.012Z,5.92
2018-02-12T11:55:45.496Z,7.15
2018-02-12T11:58:13.919Z,8.34
2018-02-12T12:00:42.199Z,8.07
2018-02-12T12:03:12.059Z,7.05
2018-02-12T12:05:41.099Z,6.56
2018-02-12T12:08:12.115Z,6.39
2018-02-12T12:10:40.473Z,7.19
2018-02-12T12:13:15.521Z,8.75
2018-02-12T12:15:43.790Z,8.85
2018-02-12T12:18:12.429Z,7.70
2018-02-12T12:20:40.704Z,6.80
2018-02-12T12:23:14.743Z,6.39
2018-02-12T12:25:43.000Z,5.93
2018-02-12T12:28:12.438Z,6.20
2018-02-12T12:30:40.700Z,6.07
2018-02-12T12:33:12.751Z,5.57
2018-02-12T12:35:40.971Z,5.52
2018-02-12T12:38:12.123Z,5.38
2018-02-12T12:40:40.940Z,5.47
2018-02-12T12:43:12.647Z,5.36
2018-02-12T12:45:40.913Z,5.76
2018-02-12T12:48:12.601Z,5.62
2018-02-12T12:50:41.293Z,5.50
2018-02-12T12:53:13.600Z,5.38
2018-02-12T12:55:41.863Z,5.18
2018-02-12T12:58:13.409Z,5.39
2018-02-12T13:00:41.704Z,7.24
2018-02-12T13:03:13.824Z,8.73
2018-02-12T13:05:42.593Z,9.82
2018-02-12T13:08:12.321Z,8.98
2018-02-12T13:10:40.624Z,9.34
2018-02-12T13:13:13.635Z,10.86
2018-02-12T13:15:41.906Z,11.50
2018-02-12T13:18:14.046Z,12.46
2018-02-12T13:20:42.320Z,12.52
2018-02-12T13:23:13.566Z,11.18
2018-02-12T13:25:41.856Z,10.41
2018-02-12T13:28:13.070Z,10.04
2018-02-12T13:30:41.489Z,10.29
2018-02-12T13:33:13.937Z,8.50
2018-02-12T13:35:42.178Z,7.90
2018-02-12T13:38:12.080Z,8.44
2018-02-12T13:40:40.366Z,9.20
2018-02-12T13:43:11.798Z,9.30
2018-02-12T13:45:40.088Z,9.31
2018-02-12T13:48:12.069Z,8.55
2018-02-12T13:50:40.505Z,8.57
2018-02-12T13:53:12.684Z,8.97
2018-02-12T13:55:41.845Z,9.72
2018-02-12T13:58:13.157Z,9.44
2018-02-12T14:00:41.433Z,8.61
2018-02-12T14:03:13.101Z,7.97
2018-02-12T14:05:41.489Z,7.61
2018-02-12T14:08:13.802Z,7.73
2018-02-12T14:10:42.069Z,7.05
2018-02-12T14:13:13.958Z,6.92
2018-02-12T14:15:42.260Z,6.88
2018-02-12T14:18:15.369Z,6.93
2018-02-12T14:20:43.669Z,6.64
2018-02-12T14:23:13.182Z,6.65
2018-02-12T14:25:41.548Z,6.86
2018-02-12T14:28:14.256Z,6.58
2018-02-12T14:30:46.625Z,6.79
2018-02-12T14:33:14.954Z,6.97
2018-02-12T14:35:43.191Z,6.90
2018-02-12T14:38:12.612Z,6.99
2018-02-12T14:40:40.893Z,6.80
2018-02-12T14:43:12.099Z,6.79
2018-02-12T14:45:40.686Z,6.83
2018-02-12T14:48:12.264Z,6.78
2018-02-12T14:50:40.568Z,6.76
2018-02-12T14:53:15.541Z,6.80
2018-02-12T14:55:44.446Z,6.60
2018-02-12T14:58:12.671Z,6.62
2018-02-12T15:00:40.956Z,6.46
2018-02-12T15:03:13.134Z,6.29
2018-02-12T15:05:41.401Z,6.21
2018-02-12T15:08:13.461Z,6.15
2018-02-12T15:10:41.759Z,6.11
2018-02-12T15:13:12.933Z,6.16
2018-02-12T15:15:41.210Z,6.11
2018-02-12T15:18:12.440Z,6.01
2018-02-12T15:20:40.714Z,5.99
2018-02-12T15:23:12.332Z,5.81
2018-02-12T15:25:40.602Z,5.45
2018-02-12T15:28:12.336Z,4.21
2018-02-12T15:30:40.609Z,3.69
2018-02-12T15:33:11.952Z,3.41
2018-02-12T15:35:40.228Z,3.42
2018-02-12T15:38:12.045Z,3.39
2018-02-12T15:40:40.339Z,3.48
2018-02-12T15:43:11.097Z,3.61
2018-02-12T15:45:39.419Z,3.81
2018-02-12T15:48:13.324Z,3.73
2018-02-12T15:50:41.812Z,3.83
2018-02-12T15:53:11.428Z,3.94
2018-02-12T15:55:39.740Z,3.85
2018-02-12T15:58:13.810Z,4.04
2018-02-12T16:00:42.096Z,4.12
2018-02-12T16:03:11.509Z,4.14
2018-02-12T16:05:39.813Z,4.28
2018-02-12T16:08:11.228Z,4.36
2018-02-12T16:10:39.526Z,4.22
2018-02-12T16:13:14.722Z,4.07
2018-02-12T16:15:43.030Z,4.10
2018-02-12T16:18:11.384Z,4.03
2018-02-12T16:20:39.660Z,3.82
2018-02-12T16:23:11.237Z,3.92
2018-02-12T16:25:39.511Z,3.79
2018-02-12T16:28:11.208Z,3.75
2018-02-12T16:30:39.502Z,3.84
2018-02-12T16:33:14.684Z,4.18
2018-02-12T16:35:42.954Z,4.32
2018-02-12T16:38:11.236Z,4.26
2018-02-12T16:40:39.533Z,4.21
2018-02-12T16:43:14.572Z,4.25
2018-02-12T16:45:42.966Z,4.33
2018-02-12T16:48:11.270Z,4.46
2018-02-12T16:50:39.554Z,4.68
2018-02-12T16:53:11.432Z,4.48
2018-02-12T16:55:39.982Z,4.88
2018-02-12T16:58:12.618Z,4.82
2018-02-12T17:00:40.894Z,5.03
2018-02-12T17:03:12.745Z,4.85
2018-02-12T17:05:41.052Z,4.44
2018-02-12T17:08:12.294Z,4.15
2018-02-12T17:10:40.585Z,4.12
2018-02-12T17:13:12.029Z,4.27
2018-02-12T17:15:40.866Z,4.31
2018-02-12T17:18:11.297Z,4.12
2018-02-12T17:20:39.592Z,4.17
2018-02-12T17:23:11.547Z,4.05
2018-02-12T17:25:39.816Z,4.08
2018-02-12T17:28:13.769Z,4.00
2018-02-12T17:30:42.090Z,4.07
2018-02-12T17:33:11.412Z,3.88
2018-02-12T17:35:39.910Z,3.73
2018-02-12T17:38:11.166Z,3.74
2018-02-12T17:40:39.445Z,3.72
2018-02-12T17:43:14.722Z,3.86
2018-02-12T17:45:43.029Z,3.59
2018-02-12T17:48:11.623Z,3.51
2018-02-12T17:50:39.907Z,3.64
2018-02-12T17:53:11.179Z,3.59
2018-02-12T17:55:39.477Z,3.63
2018-02-12T17:58:15.121Z,3.69
2018-02-12T18:00:47.301Z,3.53
2018-02-12T18:03:15.611Z,3.56
2018-02-12T18:05:44.158Z,3.53
2018-02-12T18:08:12.442Z,3.61
2018-02-12T18:10:40.734Z,3.65
2018-02-12T18:13:12.944Z,3.59
2018-02-12T18:15:41.218Z,3.61
2018-02-12T18:18:14.387Z,3.61
2018-02-12T18:20:42.788Z,3.77
2018-02-12T18:23:11.732Z,3.63
2018-02-12T18:25:40.035Z,3.58
2018-02-12T18:28:11.521Z,3.65
2018-02-12T18:30:39.835Z,3.57
2018-02-12T18:33:11.279Z,3.39
2018-02-12T18:35:39.558Z,3.38
2018-02-12T18:38:12.333Z,3.42
2018-02-12T18:40:40.599Z,3.45
2018-02-12T18:43:12.825Z,3.62
2018-02-12T18:45:41.333Z,3.44
2018-02-12T18:48:13.065Z,3.51
2018-02-12T18:50:41.357Z,3.43
2018-02-12T18:53:14.522Z,3.46
2018-02-12T18:55:42.838Z,3.59
2018-02-12T18:58:11.201Z,3.26
2018-02-12T19:00:39.481Z,3.17
2018-02-12T19:03:11.352Z,3.31
2018-02-12T19:05:39.646Z,3.08
2018-02-12T19:08:13.949Z,3.16
2018-02-12T19:10:42.425Z,3.13
2018-02-12T19:13:12.310Z,3.08
2018-02-12T19:15:40.694Z,3.06
2018-02-12T19:18:12.260Z,3.19
2018-02-12T19:20:40.727Z,2.99
2018-02-12T19:23:12.633Z,3.05
2018-02-12T19:25:40.933Z,2.81
2018-02-12T19:28:12.129Z,2.94
2018-02-12T19:30:40.966Z,3.07
2018-02-12T19:33:11.093Z,2.95
2018-02-12T19:35:39.623Z,3.08
2018-02-12T19:38:14.758Z,2.86
2018-02-12T19:40:43.047Z,2.74
2018-02-12T19:43:11.352Z,2.64
2018-02-12T19:45:39.656Z,2.74
2018-02-12T19:48:12.320Z,2.73
2018-02-12T19:50:40.612Z,2.64
2018-02-12T19:53:12.747Z,2.68
2018-02-12T19:55:41.028Z,2.50
2018-02-12T19:58:12.236Z,2.64
2018-02-12T20:00:40.542Z,2.57
2018-02-12T20:03:11.172Z,2.63
2018-02-12T20:05:39.452Z,2.54
2018-02-12T20:08:11.191Z,2.51
2018-02-12T20:10:39.660Z,2.50
2018-02-12T20:13:11.036Z,2.50
2018-02-12T20:15:39.376Z,2.44
2018-02-12T20:18:10.712Z,2.37
2018-02-12T20:20:38.992Z,2.45
2018-02-12T20:23:14.379Z,2.49
2018-02-12T20:25:42.698Z,2.55
2018-02-12T20:28:11.722Z,2.60
2018-02-12T20:30:39.998Z,2.57
2018-02-12T20:33:12.136Z,2.66
2018-02-12T20:35:40.465Z,2.60
2018-02-12T20:38:12.461Z,2.53
2018-02-12T20:40:40.907Z,2.48
2018-02-12T20:43:12.968Z,2.39
2018-02-12T20:45:41.557Z,2.36
2018-02-12T20:48:11.509Z,2.42
2018-02-12T20:50:39.788Z,2.39
2018-02-12T20:53:11.365Z,2.42
2018-02-12T20:55:39.672Z,2.34
2018-02-12T20:58:12.680Z,2.29
2018-02-12T21:00:40.974Z,2.38
2018-02-12T21:03:11.142Z,2.27
2018-02-12T21:05:39.437Z,2.21
2018-02-12T21:08:14.765Z,2.22
2018-02-12T21:10:43.050Z,2.38
2018-02-12T21:13:11.340Z,2.20
2018-02-12T21:15:39.907Z,2.23
2018-02-12T21:18:11.208Z,2.18
2018-02-12T21:20:39.481Z,2.18
2018-02-12T21:23:11.001Z,2.09
2018-02-12T21:25:39.545Z,2.06
2018-02-12T21:28:14.712Z,2.05
2018-02-12T21:30:42.984Z,2.04
2018-02-12T21:33:11.273Z,2.06
2018-02-12T21:35:39.581Z,2.03
2018-02-12T21:38:11.197Z,2.03
2018-02-12T21:40:39.581Z,1.98
2018-02-12T21:43:14.714Z,1.99
2018-02-12T21:45:43.562Z,2.09
2018-02-12T21:48:11.866Z,2.02
2018-02-12T21:50:40.157Z,2.09
2018-02-12T21:53:11.840Z,2.01
2018-02-12T21:55:40.109Z,2.03
2018-02-12T21:58:11.937Z,1.91
2018-02-12T22:00:40.248Z,1.99
2018-02-12T22:03:11.437Z,1.95
2018-02-12T22:05:39.936Z,1.89
2018-02-12T22:08:14.045Z,1.88
2018-02-12T22:10:43.070Z,1.93
2018-02-12T22:13:11.355Z,1.86
2018-02-12T22:15:39.901Z,1.80
2018-02-12T22:18:11.452Z,1.91
2018-02-12T22:20:39.741Z,1.86
2018-02-12T22:23:11.232Z,1.77
2018-02-12T22:25:39.549Z,1.76
2018-02-12T22:28:14.754Z,1.80
2018-02-12T22:30:43.329Z,1.85
2018-02-12T22:33:11.649Z,1.81
2018-02-12T22:35:39.921Z,1.73
2018-02-12T22:38:11.662Z,1.64
2018-02-12T22:40:39.952Z,1.73
2018-02-12T22:43:11.228Z,1.59
2018-02-12T22:45:40.394Z,1.57
2018-02-12T22:48:11.849Z,1.60
2018-02-12T22:50:40.142Z,1.59
2018-02-12T22:53:11.406Z,1.60
2018-02-12T22:55:39.914Z,1.54
2018-02-12T22:58:11.845Z,1.59
2018-02-12T23:00:40.128Z,1.57
2018-02-12T23:03:11.414Z,1.57
2018-02-12T23:05:39.910Z,1.58
2018-02-12T23:08:11.842Z,1.57
2018-02-12T23:10:40.121Z,1.63
2018-02-12T23:13:11.444Z,1.69
2018-02-12T23:15:39.849Z,1.58
2018-02-12T23:18:13.920Z,1.55
2018-02-12T23:20:42.885Z,1.57
2018-02-12T23:23:11.283Z,1.57
2018-02-12T23:25:39.557Z,1.55
2018-02-12T23:28:11.321Z,1.50
2018-02-12T23:30:39.622Z,1.42
2018-02-12T23:33:14.647Z,1.40
2018-02-12T23:35:43.825Z,1.36
2018-02-12T23:38:12.098Z,1.44
2018-02-12T23:40:42.922Z,1.34
2018-02-12T23:43:12.951Z,1.37
2018-02-12T23:45:43.024Z,1.40
2018-02-12T23:48:12.371Z,1.41
2018-02-12T23:50:42.371Z,1.42
2018-02-12T23:53:13.234Z,1.45
2018-02-12T23:55:43.695Z,1.46
2018-02-12T23:58:15.976Z,1.57
